Time;durP1;ratioP1;P1;durP2;ratioP2;P2;SDS_P1;SDS_P2;PMS_P1;PMS_P2;Temp;Humidity;BMP_temperature;BMP_pressure;BME280_temperature;BME280_humidity;BME280_pressure;Samples;Min_cycle;Max_cycle;Signal;HPM_P1;HPM_P2
2023/07/21 00:04:55;;;;;;;21.10;17.87;;;;;13.50;100758.00;;;;10582819;27;20191;-73
2023/07/21 00:09:59;;;;;;;27.13;19.70;;;;;13.50;100756.00;;;;10583268;27;20176;-73
2023/07/21 00:15:01;;;;;;;25.77;18.87;;;;;13.40;100762.00;;;;10565034;27;20669;-73
2023/07/21 00:20:12;;;;;;;23.77;19.43;;;;;13.40;100750.00;;;;10582630;27;20196;-73
2023/07/21 00:25:14;;;;;;;22.80;20.37;;;;;13.40;100747.00;;;;10545261;27;20208;-73
2023/07/21 00:30:16;;;;;;;21.40;18.90;;;;;13.40;100744.00;;;;10575074;27;20630;-74
2023/07/21 00:35:18;;;;;;;24.27;18.23;;;;;13.30;100749.00;;;;10542909;27;20203;-74
2023/07/21 00:40:19;;;;;;;23.27;18.47;;;;;13.20;100752.00;;;;10571861;27;20196;-73
2023/07/21 00:45:22;;;;;;;22.00;17.17;;;;;13.00;100744.00;;;;10579597;27;20253;-74
2023/07/21 00:50:24;;;;;;;20.80;18.33;;;;;12.90;100735.00;;;;10538567;27;20616;-73
2023/07/21 00:55:25;;;;;;;19.07;17.10;;;;;12.90;100739.00;;;;10559363;27;20192;-74
2023/07/21 01:00:27;;;;;;;21.30;17.53;;;;;12.80;100743.00;;;;10578954;27;20569;-76
2023/07/21 01:05:32;;;;;;;24.10;19.40;;;;;12.80;100743.00;;;;10551887;27;20232;-75
2023/07/21 01:10:36;;;;;;;21.30;17.20;;;;;12.80;100729.00;;;;10572536;28;20227;-76
2023/07/21 01:15:45;;;;;;;21.23;18.27;;;;;12.80;100726.00;;;;10560274;27;20689;-76
2023/07/21 01:20:48;;;;;;;18.83;16.83;;;;;12.80;100719.00;;;;10547215;27;20203;-75
2023/07/21 01:25:52;;;;;;;21.60;18.33;;;;;12.80;100720.00;;;;10525765;27;20291;-76
2023/07/21 01:30:55;;;;;;;24.33;18.40;;;;;12.70;100711.00;;;;10546780;27;20221;-76
2023/07/21 01:35:58;;;;;;;21.60;17.23;;;;;12.70;100704.00;;;;10547610;27;20195;-75
2023/07/21 01:40:59;;;;;;;23.80;18.53;;;;;12.70;100699.00;;;;10540408;27;20396;-76
2023/07/21 01:46:02;;;;;;;19.27;16.47;;;;;12.60;100687.00;;;;10546030;27;20707;-75
2023/07/21 01:51:05;;;;;;;20.87;18.67;;;;;12.60;100677.00;;;;10566062;27;20747;-76
2023/07/21 01:56:11;;;;;;;20.83;17.93;;;;;12.60;100681.00;;;;10559490;27;20192;-76
2023/07/21 02:01:14;;;;;;;20.60;16.83;;;;;12.50;100667.00;;;;10520842;28;20188;-75
2023/07/21 02:06:16;;;;;;;19.47;15.93;;;;;12.40;100672.00;;;;10566866;27;20192;-72
2023/07/21 02:11:20;;;;;;;27.10;17.43;;;;;12.40;100669.00;;;;10582302;27;20228;-74
2023/07/21 02:16:30;;;;;;;22.30;17.73;;;;;12.30;100664.00;;;;10589235;27;20283;-74
2023/07/21 02:21:34;;;;;;;22.63;16.60;;;;;12.30;100665.00;;;;10608849;27;20302;-73
2023/07/21 02:26:36;;;;;;;19.00;16.77;;;;;12.10;100667.00;;;;10609705;27;20284;-74
2023/07/21 02:31:37;;;;;;;23.33;17.90;;;;;12.00;100664.00;;;;10609167;27;20278;-73
2023/07/21 02:36:39;;;;;;;23.57;17.97;;;;;12.00;100666.00;;;;10592547;27;20298;-75
2023/07/21 02:41:41;;;;;;;22.00;16.20;;;;;11.90;100665.00;;;;10610934;27;20243;-74
2023/07/21 02:46:43;;;;;;;21.93;17.00;;;;;11.80;100653.00;;;;10595853;27;20196;-75
2023/07/21 02:51:45;;;;;;;21.57;16.00;;;;;11.80;100658.00;;;;10583260;27;20603;-73
2023/07/21 02:56:46;;;;;;;21.00;15.10;;;;;11.70;100660.00;;;;10561361;27;20618;-75
2023/07/21 03:01:55;;;;;;;29.80;17.63;;;;;11.70;100653.00;;;;10548349;27;20219;-73
2023/07/21 03:07:05;;;;;;;20.80;15.57;;;;;11.60;100655.00;;;;10559857;27;20561;-73
2023/07/21 03:12:07;;;;;;;18.33;15.90;;;;;11.60;100652.00;;;;10545758;27;20560;-73
2023/07/21 03:17:32;;;;;;;35.10;18.30;;;;;11.60;100651.00;;;;10535184;28;20216;-73
2023/07/21 03:22:34;;;;;;;48.67;19.03;;;;;11.60;100640.00;;;;10563777;27;20389;-74
2023/07/21 03:27:36;;;;;;;108.70;25.07;;;;;11.50;100641.00;;;;10554831;27;20653;-74
2023/07/21 03:32:38;;;;;;;27.50;20.23;;;;;11.50;100640.00;;;;10561234;27;20196;-72
2023/07/21 03:37:39;;;;;;;34.40;20.77;;;;;11.50;100641.00;;;;10535941;28;20822;-75
2023/07/21 03:42:41;;;;;;;38.00;21.63;;;;;11.50;100643.00;;;;10534850;28;20827;-76
2023/07/21 03:47:42;;;;;;;37.07;22.00;;;;;11.50;100653.00;;;;10565834;27;20215;-75
2023/07/21 03:52:44;;;;;;;51.47;24.70;;;;;11.60;100640.00;;;;10580650;27;20195;-76
2023/07/21 03:57:49;;;;;;;42.60;23.53;;;;;11.60;100632.00;;;;10563303;27;20207;-75
2023/07/21 04:02:51;;;;;;;55.77;23.57;;;;;11.60;100620.00;;;;10581323;27;20257;-75
2023/07/21 04:07:53;;;;;;;52.03;20.37;;;;;11.60;100617.00;;;;10545756;27;20550;-75
2023/07/21 04:12:55;;;;;;;41.50;19.97;;;;;11.60;100614.00;;;;10582367;27;20188;-75
2023/07/21 04:17:57;;;;;;;44.57;20.10;;;;;11.60;100611.00;;;;10556867;27;20492;-73
2023/07/21 04:22:59;;;;;;;24.93;19.93;;;;;11.60;100614.00;;;;10555571;27;20263;-76
2023/07/21 04:28:00;;;;;;;33.87;22.43;;;;;11.70;100616.00;;;;10523917;28;20203;-75
2023/07/21 04:33:02;;;;;;;34.33;22.50;;;;;11.90;100605.00;;;;10535092;27;20192;-76
2023/07/21 04:38:04;;;;;;;30.30;21.87;;;;;12.10;100603.00;;;;10507772;27;20495;-75
2023/07/21 04:43:12;;;;;;;28.20;22.87;;;;;12.30;100603.00;;;;10527617;27;20220;-75
2023/07/21 04:48:14;;;;;;;41.57;23.93;;;;;12.40;100606.00;;;;10547046;27;20192;-75
2023/07/21 04:53:18;;;;;;;32.13;23.13;;;;;12.60;100611.00;;;;10531108;27;20196;-74
2023/07/21 04:58:19;;;;;;;36.73;23.83;;;;;12.90;100599.00;;;;10519948;27;20833;-75
2023/07/21 05:03:21;;;;;;;43.03;28.60;;;;;13.20;100604.00;;;;10555703;27;20605;-75
2023/07/21 05:08:25;;;;;;;41.60;28.20;;;;;13.40;100596.00;;;;10551395;27;20197;-75
2023/07/21 05:13:28;;;;;;;37.80;29.93;;;;;13.90;100599.00;;;;10521746;27;20697;-75
2023/07/21 05:18:46;;;;;;;43.57;29.77;;;;;14.20;100605.00;;;;10541853;27;20252;-75
2023/07/21 05:24:19;;;;;;;45.43;33.60;;;;;14.80;100606.00;;;;10533783;27;20610;-74
2023/07/21 05:29:22;;;;;;;53.37;35.80;;;;;15.50;100603.00;;;;10541095;27;20206;-74
2023/07/21 05:34:23;;;;;;;40.75;30.73;;;;;15.70;100608.00;;;;10538441;28;20201;-75
2023/07/21 05:39:29;;;;;;;45.83;34.45;;;;;15.90;100610.00;;;;10525832;28;20204;-75
2023/07/21 05:44:33;;;;;;;34.05;27.40;;;;;16.10;100605.00;;;;10530272;27;20212;-75
2023/07/21 05:49:34;;;;;;;37.83;24.88;;;;;16.40;100607.00;;;;10532570;27;20224;-76
2023/07/21 05:54:39;;;;;;;34.53;27.52;;;;;17.00;100607.00;;;;10537765;28;20849;-75
2023/07/21 05:59:45;;;;;;;30.67;25.60;;;;;17.40;100608.00;;;;10559535;27;20285;-75
2023/07/21 06:04:49;;;;;;;33.97;27.50;;;;;17.30;100610.00;;;;10563821;27;20461;-76
2023/07/21 06:10:06;;;;;;;26.65;23.77;;;;;17.10;100611.00;;;;10552294;27;20449;-76
2023/07/21 06:15:12;;;;;;;26.42;23.42;;;;;16.60;100620.00;;;;10541363;28;20204;-75
2023/07/21 06:20:24;;;;;;;29.35;24.20;;;;;16.40;100623.00;;;;10529569;28;20211;-75
2023/07/21 06:25:27;;;;;;;32.08;25.85;;;;;16.50;100632.00;;;;10543376;27;20540;-76
2023/07/21 06:30:38;;;;;;;30.45;25.15;;;;;16.70;100625.00;;;;10535199;27;20417;-76
2023/07/21 06:35:41;;;;;;;34.08;26.92;;;;;17.00;100640.00;;;;10536025;27;20742;-72
2023/07/21 06:40:57;;;;;;;35.30;27.42;;;;;17.30;100628.00;;;;10579731;27;20239;-75
2023/07/21 06:46:17;;;;;;;32.83;27.02;;;;;17.50;100621.00;;;;10527625;27;20287;-76
2023/07/21 06:51:37;;;;;;;60.30;40.67;;;;;19.10;100613.00;;;;10540349;27;20742;-76
2023/07/21 06:56:38;;;;;;;36.38;32.25;;;;;20.30;100618.00;;;;10561207;27;20543;-76
2023/07/21 07:01:40;;;;;;;25.75;22.95;;;;;20.90;100616.00;;;;10530213;27;20643;-74
2023/07/21 07:06:42;;;;;;;24.23;21.83;;;;;21.10;100614.00;;;;10559283;27;20740;-76
2023/07/21 07:11:43;;;;;;;21.52;19.48;;;;;21.60;100605.00;;;;10557852;28;20589;-73
2023/07/21 07:16:48;;;;;;;21.05;18.92;;;;;21.90;100606.00;;;;10541042;27;20485;-75
2023/07/21 07:21:50;;;;;;;17.10;15.25;;;;;22.10;100603.00;;;;10539972;27;20216;-76
2023/07/21 07:26:52;;;;;;;16.63;14.80;;;;;22.30;100600.00;;;;10567787;27;20300;-75
2023/07/21 07:31:55;;;;;;;19.85;17.88;;;;;22.50;100607.00;;;;10577968;27;20197;-72
2023/07/21 07:36:58;;;;;;;16.52;14.90;;;;;23.20;100608.00;;;;10578504;27;20551;-75
2023/07/21 07:42:00;;;;;;;18.95;17.00;;;;;23.70;100618.00;;;;10583145;27;20227;-75
2023/07/21 07:47:01;;;;;;;20.80;18.80;;;;;24.50;100607.00;;;;10533350;28;20209;-78
2023/07/21 07:52:07;;;;;;;18.80;16.90;;;;;25.50;100617.00;;;;10556524;27;20209;-75
2023/07/21 07:57:08;;;;;;;18.27;16.65;;;;;24.50;100617.00;;;;10564483;27;20200;-74
2023/07/21 08:02:09;;;;;;;16.88;15.23;;;;;23.70;100622.00;;;;10572707;27;20673;-75
2023/07/21 08:07:11;;;;;;;16.92;15.32;;;;;23.20;100621.00;;;;10591310;27;20196;-75
2023/07/21 08:12:12;;;;;;;18.48;16.67;;;;;22.90;100632.00;;;;10582698;27;20192;-78
2023/07/21 08:17:14;;;;;;;17.85;16.15;;;;;22.40;100637.00;;;;10583355;27;20527;-75
2023/07/21 08:22:16;;;;;;;16.42;14.93;;;;;21.90;100639.00;;;;10582716;27;20670;-73
2023/07/21 08:27:17;;;;;;;17.50;15.70;;;;;21.40;100645.00;;;;10583402;27;20192;-74
2023/07/21 08:32:18;;;;;;;18.33;15.50;;;;;21.40;100649.00;;;;10571246;27;20669;-75
2023/07/21 08:37:19;;;;;;;15.80;14.30;;;;;21.90;100652.00;;;;10537471;27;20701;-74
2023/07/21 08:42:23;;;;;;;15.23;13.65;;;;;22.80;100651.00;;;;10525819;27;20262;-78
2023/07/21 08:47:24;;;;;;;14.10;12.27;;;;;24.00;100649.00;;;;10553554;27;20192;-78
2023/07/21 08:52:26;;;;;;;13.38;12.13;;;;;25.00;100651.00;;;;10559128;27;20214;-76
2023/07/21 08:57:27;;;;;;;12.02;10.82;;;;;25.60;100633.00;;;;10561198;27;20245;-76
2023/07/21 09:02:39;;;;;;;13.85;12.50;;;;;25.40;100619.00;;;;10530750;27;20269;-75
2023/07/21 09:07:41;;;;;;;13.18;11.85;;;;;26.00;100632.00;;;;10561540;27;20943;-75
2023/07/21 09:12:42;;;;;;;13.13;11.52;;;;;26.50;100638.00;;;;10560936;27;20220;-76
2023/07/21 09:17:44;;;;;;;11.35;10.32;;;;;27.10;100639.00;;;;10574313;27;20565;-76
2023/07/21 09:22:49;;;;;;;11.07;10.05;;;;;27.60;100635.00;;;;10541931;27;20688;-78
2023/07/21 09:27:55;;;;;;;9.63;8.73;;;;;27.20;100629.00;;;;10543577;27;20487;-76
2023/07/21 09:32:56;;;;;;;10.32;9.32;;;;;27.40;100626.00;;;;10565519;27;20481;-76
2023/07/21 09:37:59;;;;;;;10.40;9.30;;;;;27.60;100633.00;;;;10552309;28;20206;-77
2023/07/21 09:43:01;;;;;;;9.48;7.68;;;;;27.60;100626.00;;;;10531539;27;20215;-74
2023/07/21 09:48:03;;;;;;;9.95;8.95;;;;;27.80;100617.00;;;;10535424;27;20196;-76
2023/07/21 09:53:04;;;;;;;11.40;10.38;;;;;27.30;100614.00;;;;10534514;27;20266;-75
2023/07/21 09:58:09;;;;;;;12.10;10.63;;;;;27.70;100610.00;;;;10555357;27;20440;-74
2023/07/21 10:03:11;;;;;;;12.48;11.27;;;;;27.10;100608.00;;;;10552969;27;20200;-75
2023/07/21 10:08:13;;;;;;;10.38;8.38;;;;;28.80;100618.00;;;;10556138;27;20661;-75
2023/07/21 10:13:14;;;;;;;11.10;8.93;;;;;28.30;100616.00;;;;10574275;27;20553;-75
2023/07/21 10:18:19;;;;;;;11.45;10.02;;;;;26.50;100623.00;;;;10580129;27;20201;-75
2023/07/21 10:23:31;;;;;;;11.25;9.48;;;;;25.10;100626.00;;;;10571657;27;20207;-75
2023/07/21 10:28:32;;;;;;;9.18;8.27;;;;;24.60;100626.00;;;;10554529;27;20282;-75
2023/07/21 10:33:33;;;;;;;10.95;9.60;;;;;24.60;100626.00;;;;10576860;27;20272;-75
2023/07/21 10:38:40;;;;;;;9.98;9.02;;;;;25.90;100619.00;;;;10577582;27;20733;-75
2023/07/21 10:43:42;;;;;;;8.30;7.55;;;;;26.50;100618.00;;;;10567044;27;20251;-75
2023/07/21 10:48:43;;;;;;;8.82;8.02;;;;;25.40;100618.00;;;;10555683;27;20287;-75
2023/07/21 10:53:44;;;;;;;6.88;4.80;;;;;26.30;100619.00;;;;10572387;27;20269;-75
2023/07/21 10:58:46;;;;;;;7.30;5.00;;;;;24.90;100617.00;;;;10567189;27;20310;-76
2023/07/21 11:03:48;;;;;;;6.75;5.80;;;;;23.60;100632.00;;;;10576005;27;20276;-76
2023/07/21 11:08:50;;;;;;;10.80;9.70;;;;;23.00;100634.00;;;;10558357;27;20253;-75
2023/07/21 11:13:52;;;;;;;10.98;9.85;;;;;22.50;100630.00;;;;10558554;27;20255;-75
2023/07/21 11:18:54;;;;;;;8.63;7.82;;;;;22.00;100653.00;;;;10575018;27;20208;-75
2023/07/21 11:24:00;;;;;;;9.23;6.30;;;;;21.60;100662.00;;;;10572759;27;20220;-75
2023/07/21 11:29:04;;;;;;;7.95;5.03;;;;;20.90;100675.00;;;;10573887;27;20196;-75
2023/07/21 11:34:25;;;;;;;7.38;5.20;;;;;19.10;100697.00;;;;10552558;27;20551;-76
2023/07/21 11:39:28;;;;;;;5.07;4.15;;;;;16.70;100710.00;;;;10565099;27;20248;-75
2023/07/21 11:44:31;;;;;;;11.13;5.10;;;;;15.70;100738.00;;;;10574817;27;20202;-74
2023/07/21 11:49:44;;;;;;;8.68;4.80;;;;;15.80;100742.00;;;;10562237;27;20196;-75
2023/07/21 11:54:45;;;;;;;7.45;5.60;;;;;16.00;100745.00;;;;10564609;27;20573;-72
2023/07/21 11:59:47;;;;;;;8.80;6.20;;;;;16.20;100740.00;;;;10560638;27;20279;-72
2023/07/21 12:04:48;;;;;;;8.20;7.32;;;;;16.50;100743.00;;;;10566663;27;20581;-75
2023/07/21 12:09:50;;;;;;;14.43;7.72;;;;;16.40;100750.00;;;;10579174;27;20317;-79
2023/07/21 12:14:51;;;;;;;11.15;8.07;;;;;16.40;100750.00;;;;10598811;27;20222;-72
2023/07/21 12:19:53;;;;;;;9.85;8.75;;;;;16.90;100743.00;;;;10556982;27;20204;-75
2023/07/21 12:24:55;;;;;;;38.67;10.98;;;;;18.40;100731.00;;;;10559609;27;20196;-75
2023/07/21 12:29:57;;;;;;;11.23;8.95;;;;;19.80;100729.00;;;;10558411;27;20204;-78
2023/07/21 12:34:59;;;;;;;7.65;6.43;;;;;20.70;100726.00;;;;10557763;27;20216;-72
2023/07/21 12:40:00;;;;;;;5.97;5.35;;;;;22.10;100729.00;;;;10572214;27;20208;-76
2023/07/21 12:45:02;;;;;;;5.68;5.10;;;;;22.70;100723.00;;;;10553737;27;20341;-80
2023/07/21 12:50:04;;;;;;;6.10;5.45;;;;;22.10;100723.00;;;;10558483;27;20202;-77
2023/07/21 12:55:06;;;;;;;10.07;5.85;;;;;22.00;100733.00;;;;10568439;27;20214;-79
2023/07/21 13:00:11;;;;;;;7.35;6.10;;;;;21.10;100735.00;;;;10557419;27;20224;-74
2023/07/21 13:05:13;;;;;;;9.30;6.93;;;;;19.90;100737.00;;;;10550616;28;20650;-75
2023/07/21 13:10:14;;;;;;;9.52;7.30;;;;;19.50;100739.00;;;;10572468;27;20569;-75
2023/07/21 13:15:16;;;;;;;9.27;6.70;;;;;19.80;100727.00;;;;10556368;27;20207;-75
2023/07/21 13:20:18;;;;;;;8.27;7.35;;;;;20.90;100727.00;;;;10565352;27;20192;-75
2023/07/21 13:25:19;;;;;;;10.52;7.55;;;;;22.10;100725.00;;;;10558316;28;20200;-75
2023/07/21 13:30:20;;;;;;;9.48;7.68;;;;;20.80;100721.00;;;;10579441;28;20188;-75
2023/07/21 13:35:22;;;;;;;10.80;8.20;;;;;20.40;100714.00;;;;10578808;27;20212;-75
2023/07/21 13:40:23;;;;;;;12.20;7.97;;;;;21.90;100704.00;;;;10554552;28;20196;-75
2023/07/21 13:45:24;;;;;;;11.98;7.57;;;;;23.20;100713.00;;;;10546014;28;20592;-75
2023/07/21 13:50:26;;;;;;;10.77;8.50;;;;;23.00;100708.00;;;;10545795;28;20650;-79
2023/07/21 13:55:27;;;;;;;10.80;7.50;;;;;22.90;100711.00;;;;10559798;28;20246;-76
2023/07/21 14:00:29;;;;;;;10.05;7.65;;;;;22.70;100698.00;;;;10574213;28;20254;-76
2023/07/21 14:05:31;;;;;;;8.95;6.50;;;;;22.80;100701.00;;;;10526823;28;20201;-75
2023/07/21 14:10:32;;;;;;;7.45;5.63;;;;;23.80;100704.00;;;;10544613;28;20217;-75
2023/07/21 14:15:33;;;;;;;8.15;5.32;;;;;24.40;100697.00;;;;10554908;27;20227;-75
2023/07/21 14:20:35;;;;;;;6.10;5.50;;;;;23.50;100719.00;;;;10586111;28;20191;-78
2023/07/21 14:25:36;;;;;;;7.07;5.90;;;;;22.70;100718.00;;;;10586947;27;20199;-77
2023/07/21 14:30:38;;;;;;;6.13;5.53;;;;;23.10;100721.00;;;;10586799;27;20196;-77
2023/07/21 14:35:39;;;;;;;9.85;5.60;;;;;23.50;100717.00;;;;10587219;27;20756;-73
2023/07/21 14:40:41;;;;;;;7.03;5.25;;;;;23.10;100717.00;;;;10561665;27;20227;-72
2023/07/21 14:45:42;;;;;;;5.63;5.07;;;;;23.00;100728.00;;;;10566434;27;20196;-72
2023/07/21 14:50:43;;;;;;;7.65;5.00;;;;;23.40;100721.00;;;;10561632;27;20256;-73
2023/07/21 14:55:45;;;;;;;6.55;4.45;;;;;23.80;100724.00;;;;10567455;27;20192;-72
2023/07/21 15:00:47;;;;;;;5.55;4.75;;;;;23.60;100722.00;;;;10561429;27;20201;-72
2023/07/21 15:05:48;;;;;;;5.15;4.60;;;;;22.40;100719.00;;;;10571256;27;20192;-73
2023/07/21 15:10:49;;;;;;;5.18;4.43;;;;;23.20;100712.00;;;;10584318;28;20246;-72
2023/07/21 15:15:50;;;;;;;4.70;4.30;;;;;24.20;100718.00;;;;10585016;27;20265;-74
2023/07/21 15:20:51;;;;;;;4.60;4.03;;;;;25.10;100714.00;;;;10584428;27;20294;-73
2023/07/21 15:25:53;;;;;;;5.70;4.95;;;;;25.30;100738.00;;;;10565911;27;20644;-73
2023/07/21 15:31:07;;;;;;;4.53;3.50;;;;;24.30;100740.00;;;;10579776;27;20204;-72
2023/07/21 15:36:08;;;;;;;5.10;3.80;;;;;23.50;100738.00;;;;10564462;27;20204;-72
2023/07/21 15:41:09;;;;;;;3.97;3.58;;;;;24.90;100738.00;;;;10561008;27;20184;-73
2023/07/21 15:46:11;;;;;;;5.68;3.40;;;;;26.10;100740.00;;;;10544564;27;20212;-73
2023/07/21 15:51:12;;;;;;;4.05;3.65;;;;;24.00;100747.00;;;;10556425;27;20216;-72
2023/07/21 15:56:13;;;;;;;4.55;3.20;;;;;22.20;100755.00;;;;10548546;27;20200;-73
2023/07/21 16:01:15;;;;;;;4.50;3.40;;;;;21.80;100756.00;;;;10542257;27;20595;-73
2023/07/21 16:06:16;;;;;;;3.72;3.20;;;;;21.70;100755.00;;;;10582703;27;20613;-74
2023/07/21 16:11:17;;;;;;;4.28;3.88;;;;;21.50;100758.00;;;;10547753;28;20689;-74
2023/07/21 16:16:19;;;;;;;4.35;3.47;;;;;21.50;100749.00;;;;10557223;27;20203;-74
2023/07/21 16:21:21;;;;;;;4.13;3.70;;;;;21.20;100749.00;;;;10547343;27;20196;-74
2023/07/21 16:26:23;;;;;;;4.95;3.20;;;;;21.20;100749.00;;;;10583516;27;20195;-73
2023/07/21 16:31:24;;;;;;;4.43;3.78;;;;;21.20;100768.00;;;;10582459;27;20298;-74
2023/07/21 16:36:25;;;;;;;4.57;4.00;;;;;21.10;100755.00;;;;10582631;27;20657;-73
2023/07/21 16:41:27;;;;;;;4.20;3.78;;;;;21.00;100760.00;;;;10583210;27;20548;-74
2023/07/21 16:46:29;;;;;;;5.75;3.53;;;;;20.90;100751.00;;;;10540288;28;20207;-74
2023/07/21 16:51:30;;;;;;;6.05;4.25;;;;;20.90;100757.00;;;;10547245;27;20227;-77
2023/07/21 16:56:31;;;;;;;4.18;3.47;;;;;20.90;100763.00;;;;10582058;27;20274;-74
2023/07/21 17:01:33;;;;;;;4.38;3.97;;;;;20.70;100766.00;;;;10573956;27;20193;-74
2023/07/21 17:06:34;;;;;;;4.75;4.32;;;;;20.70;100761.00;;;;10521129;28;20189;-74
2023/07/21 17:11:36;;;;;;;6.70;4.20;;;;;20.70;100766.00;;;;10546881;28;20307;-74
2023/07/21 17:16:37;;;;;;;5.00;3.15;;;;;20.60;100769.00;;;;10530976;28;20220;-74
2023/07/21 17:21:38;;;;;;;8.82;3.28;;;;;20.40;100772.00;;;;10532101;28;20201;-73
2023/07/21 17:26:39;;;;;;;3.60;3.15;;;;;20.40;100762.00;;;;10553737;28;20211;-73
2023/07/21 17:31:41;;;;;;;5.13;3.33;;;;;20.30;100781.00;;;;10590288;27;20677;-74
2023/07/21 17:36:42;;;;;;;3.75;3.45;;;;;20.30;100783.00;;;;10572254;27;20638;-74
2023/07/21 17:41:43;;;;;;;4.30;3.90;;;;;20.20;100791.00;;;;10575754;27;20274;-74
2023/07/21 17:46:45;;;;;;;5.20;3.10;;;;;20.10;100788.00;;;;10570578;27;20188;-74
2023/07/21 17:51:46;;;;;;;6.60;3.35;;;;;20.00;100789.00;;;;10563445;28;20307;-74
2023/07/21 17:56:48;;;;;;;6.65;2.95;;;;;19.90;100793.00;;;;10533838;27;20200;-74
2023/07/21 18:01:49;;;;;;;5.63;3.90;;;;;19.90;100793.00;;;;10592762;27;20572;-74
2023/07/21 18:06:50;;;;;;;4.85;3.80;;;;;19.80;100792.00;;;;10579056;27;20272;-74
2023/07/21 18:11:52;;;;;;;5.63;3.10;;;;;19.70;100797.00;;;;10569195;28;20216;-74
2023/07/21 18:16:53;;;;;;;5.30;2.92;;;;;19.60;100795.00;;;;10556725;27;20207;-73
2023/07/21 18:21:54;;;;;;;5.10;3.63;;;;;19.50;100801.00;;;;10566313;28;20227;-74
2023/07/21 18:26:59;;;;;;;4.60;3.72;;;;;19.40;100797.00;;;;10584155;28;20260;-73
2023/07/21 18:32:00;;;;;;;5.47;3.33;;;;;19.30;100803.00;;;;10584872;27;20220;-74
2023/07/21 18:37:01;;;;;;;5.15;3.60;;;;;19.20;100807.00;;;;10568340;27;20279;-74
2023/07/21 18:42:03;;;;;;;5.55;3.92;;;;;19.10;100806.00;;;;10547421;27;20192;-74
2023/07/21 18:47:04;;;;;;;5.00;3.55;;;;;19.00;100813.00;;;;10581728;27;20203;-74
2023/07/21 18:52:06;;;;;;;3.60;3.28;;;;;19.00;100816.00;;;;10565649;27;20269;-74
2023/07/21 18:57:07;;;;;;;4.45;3.83;;;;;18.70;100816.00;;;;10526691;28;20193;-73
2023/07/21 19:02:08;;;;;;;4.15;3.72;;;;;18.40;100811.00;;;;10543344;28;20243;-74
2023/07/21 19:07:09;;;;;;;4.07;3.60;;;;;18.20;100822.00;;;;10561203;27;20669;-74
2023/07/21 19:12:11;;;;;;;3.88;3.45;;;;;18.10;100815.00;;;;10569891;27;20224;-74
2023/07/21 19:17:12;;;;;;;3.95;3.50;;;;;17.90;100821.00;;;;10546332;27;20234;-73
2023/07/21 19:22:14;;;;;;;5.63;4.25;;;;;17.80;100833.00;;;;10586297;27;20223;-73
2023/07/21 19:27:15;;;;;;;4.30;3.83;;;;;17.60;100832.00;;;;10565732;27;20295;-74
2023/07/21 19:32:17;;;;;;;5.57;3.75;;;;;17.50;100836.00;;;;10565392;27;20207;-74
2023/07/21 19:37:18;;;;;;;4.63;3.65;;;;;17.30;100845.00;;;;10583536;27;20196;-74
2023/07/21 19:42:19;;;;;;;7.00;3.70;;;;;17.20;100847.00;;;;10565404;28;20208;-74
2023/07/21 19:47:20;;;;;;;4.40;3.72;;;;;17.10;100849.00;;;;10584704;28;20659;-73
2023/07/21 19:52:22;;;;;;;5.93;4.38;;;;;17.00;100864.00;;;;10583261;28;20641;-73
2023/07/21 19:57:23;;;;;;;5.82;3.85;;;;;16.80;100872.00;;;;10583566;28;20243;-73
2023/07/21 20:02:24;;;;;;;4.43;3.45;;;;;16.60;100872.00;;;;10582496;28;20200;-73
2023/07/21 20:07:27;;;;;;;5.13;3.88;;;;;16.40;100873.00;;;;10578433;27;20211;-73
2023/07/21 20:12:28;;;;;;;5.95;3.92;;;;;16.20;100883.00;;;;10561113;27;20669;-74
2023/07/21 20:17:29;;;;;;;6.80;5.25;;;;;15.90;100874.00;;;;10578239;27;20208;-73
2023/07/21 20:22:31;;;;;;;7.90;4.00;;;;;15.80;100888.00;;;;10557605;28;20201;-73
2023/07/21 20:27:32;;;;;;;5.55;4.22;;;;;15.60;100887.00;;;;10578122;27;20196;-73
2023/07/21 20:32:34;;;;;;;4.97;3.90;;;;;15.40;100894.00;;;;10576980;27;20224;-72
2023/07/21 20:37:35;;;;;;;7.60;4.32;;;;;15.30;100909.00;;;;10568185;28;20292;-74
2023/07/21 20:42:37;;;;;;;4.55;4.15;;;;;15.20;100910.00;;;;10578627;27;20566;-74
2023/07/21 20:47:38;;;;;;;6.82;4.43;;;;;15.10;100907.00;;;;10575644;27;20676;-74
2023/07/21 20:52:41;;;;;;;5.70;4.78;;;;;15.00;100910.00;;;;10577306;27;20212;-74
2023/07/21 20:57:43;;;;;;;6.93;4.18;;;;;15.00;100913.00;;;;10558317;27;20204;-77
2023/07/21 21:02:45;;;;;;;10.55;4.88;;;;;15.00;100915.00;;;;10583306;27;20206;-72
2023/07/21 21:07:46;;;;;;;5.93;4.60;;;;;15.00;100914.00;;;;10561820;27;20227;-72
2023/07/21 21:12:48;;;;;;;5.93;4.40;;;;;15.00;100920.00;;;;10557439;27;20227;-72
2023/07/21 21:17:49;;;;;;;5.70;4.82;;;;;15.10;100934.00;;;;10570434;27;20650;-74
2023/07/21 21:22:51;;;;;;;10.25;5.10;;;;;15.10;100941.00;;;;10562144;27;20200;-73
2023/07/21 21:27:52;;;;;;;8.63;5.00;;;;;15.00;100940.00;;;;10558019;27;20242;-72
2023/07/21 21:32:54;;;;;;;9.90;5.38;;;;;14.80;100936.00;;;;10574050;27;20315;-73
2023/07/21 21:37:55;;;;;;;7.55;4.70;;;;;14.70;100937.00;;;;10566038;27;20222;-73
2023/07/21 21:42:57;;;;;;;6.00;4.55;;;;;14.60;100931.00;;;;10521152;27;20557;-73
2023/07/21 21:48:02;;;;;;;5.30;4.80;;;;;14.60;100938.00;;;;10566926;27;20204;-73
2023/07/21 21:53:03;;;;;;;7.55;5.22;;;;;14.60;100936.00;;;;10574697;27;20216;-76
2023/07/21 21:58:04;;;;;;;6.50;5.05;;;;;14.60;100947.00;;;;10563279;27;20653;-74
2023/07/21 22:03:07;;;;;;;6.53;5.40;;;;;14.80;100946.00;;;;10582683;27;20223;-73
2023/07/21 22:08:09;;;;;;;8.73;6.43;;;;;15.00;100942.00;;;;10564843;28;20617;-73
2023/07/21 22:13:10;;;;;;;9.80;6.85;;;;;15.20;100941.00;;;;10572343;27;20600;-78
2023/07/21 22:18:11;;;;;;;11.80;6.95;;;;;15.20;100954.00;;;;10568024;27;20596;-72
2023/07/21 22:23:13;;;;;;;10.00;7.80;;;;;15.30;100953.00;;;;10568978;27;20565;-73
2023/07/21 22:28:14;;;;;;;10.27;7.57;;;;;15.30;100949.00;;;;10563971;27;20200;-72
2023/07/21 22:33:16;;;;;;;9.35;6.82;;;;;15.40;100943.00;;;;10564105;27;20224;-73
2023/07/21 22:38:17;;;;;;;9.48;7.13;;;;;15.30;100944.00;;;;10580965;27;20195;-73
2023/07/21 22:43:19;;;;;;;10.10;7.60;;;;;15.30;100944.00;;;;10579798;28;20223;-72
2023/07/21 22:48:20;;;;;;;9.05;7.10;;;;;15.20;100952.00;;;;10580753;27;20200;-71
2023/07/21 22:53:21;;;;;;;10.18;6.68;;;;;15.20;100958.00;;;;10580474;27;20239;-75
2023/07/21 22:58:23;;;;;;;8.15;6.57;;;;;15.20;100949.00;;;;10544813;27;20196;-73
2023/07/21 23:03:24;;;;;;;8.55;6.50;;;;;15.20;100956.00;;;;10562619;27;20204;-72
2023/07/21 23:08:26;;;;;;;10.88;7.55;;;;;15.00;100951.00;;;;10573120;27;20693;-72
2023/07/21 23:13:27;;;;;;;8.88;6.95;;;;;14.90;100951.00;;;;10555291;27;20219;-71
2023/07/21 23:18:29;;;;;;;10.52;7.82;;;;;14.80;100954.00;;;;10571186;27;20815;-74
2023/07/21 23:23:30;;;;;;;10.35;7.25;;;;;14.60;100952.00;;;;10561010;27;20569;-72
2023/07/21 23:28:31;;;;;;;9.45;7.00;;;;;14.50;100952.00;;;;10579506;27;20200;-71
2023/07/21 23:33:33;;;;;;;11.35;7.97;;;;;14.50;100951.00;;;;10579170;27;20220;-72
2023/07/21 23:38:34;;;;;;;10.30;7.90;;;;;14.50;100953.00;;;;10580578;27;20249;-72
2023/07/21 23:43:35;;;;;;;10.50;7.93;;;;;14.50;100943.00;;;;10543796;27;20207;-75
2023/07/21 23:48:37;;;;;;;11.07;8.20;;;;;14.40;100947.00;;;;10579025;27;20654;-72
2023/07/21 23:53:38;;;;;;;9.18;7.30;;;;;14.40;100944.00;;;;10578971;27;20200;-74
2023/07/21 23:58:40;;;;;;;12.90;8.40;;;;;14.30;100946.00;;;;10548000;27;20197;-71
